sensor_id;sensor_type;location;lat;lon;timestamp;temperature;humidity
7360;DHT22;3720;48.274;7.796;2022-09-16T00:01:24;14.60;99.90
7360;DHT22;3720;48.274;7.796;2022-09-16T00:03:57;14.60;99.90
7360;DHT22;3720;48.274;7.796;2022-09-16T00:06:29;14.60;99.90
7360;DHT22;3720;48.274;7.796;2022-09-16T00:09:01;14.60;99.90
7360;DHT22;3720;48.274;7.796;2022-09-16T00:11:33;14.50;99.90
7360;DHT22;3720;48.274;7.796;2022-09-16T00:14:05;14.50;99.90
7360;DHT22;3720;48.274;7.796;2022-09-16T00:16:39;14.40;99.90
7360;DHT22;3720;48.274;7.796;2022-09-16T00:19:11;14.40;99.90
7360;DHT22;3720;48.274;7.796;2022-09-16T00:21:46;14.40;99.90
7360;DHT22;3720;48.274;7.796;2022-09-16T00:24:18;14.40;99.90
7360;DHT22;3720;48.274;7.796;2022-09-16T00:26:50;14.40;99.90
7360;DHT22;3720;48.274;7.796;2022-09-16T00:29:22;14.40;99.90
7360;DHT22;3720;48.274;7.796;2022-09-16T00:31:55;14.30;99.90
7360;DHT22;3720;48.274;7.796;2022-09-16T00:34:27;14.20;99.90
7360;DHT22;3720;48.274;7.796;2022-09-16T00:36:59;14.20;99.90
7360;DHT22;3720;48.274;7.796;2022-09-16T00:39:32;14.20;99.90
7360;DHT22;3720;48.274;7.796;2022-09-16T00:42:05;14.20;99.90
7360;DHT22;3720;48.274;7.796;2022-09-16T00:44:52;14.20;99.90
7360;DHT22;3720;48.274;7.796;2022-09-16T00:47:30;14.10;99.90
7360;DHT22;3720;48.274;7.796;2022-09-16T00:50:06;14.10;99.90
7360;DHT22;3720;48.274;7.796;2022-09-16T00:52:40;14.10;99.90
7360;DHT22;3720;48.274;7.796;2022-09-16T00:55:16;14.10;99.90
7360;DHT22;3720;48.274;7.796;2022-09-16T00:57:48;14.10;99.90
7360;DHT22;3720;48.274;7.796;2022-09-16T01:00:21;14.00;99.90
7360;DHT22;3720;48.274;7.796;2022-09-16T01:02:54;14.00;99.90
7360;DHT22;3720;48.274;7.796;2022-09-16T01:05:27;14.00;99.90
7360;DHT22;3720;48.274;7.796;2022-09-16T01:07:59;14.00;99.90
7360;DHT22;3720;48.274;7.796;2022-09-16T01:10:32;14.00;99.90
7360;DHT22;3720;48.274;7.796;2022-09-16T01:13:05;13.90;99.90
7360;DHT22;3720;48.274;7.796;2022-09-16T01:15:46;13.90;99.90
7360;DHT22;3720;48.274;7.796;2022-09-16T01:18:27;13.90;99.90
7360;DHT22;3720;48.274;7.796;2022-09-16T01:21:17;13.90;99.90
7360;DHT22;3720;48.274;7.796;2022-09-16T01:27:43;13.90;99.90
7360;DHT22;3720;48.274;7.796;2022-09-16T01:30:42;13.80;99.90
7360;DHT22;3720;48.274;7.796;2022-09-16T01:33:24;13.80;99.90
7360;DHT22;3720;48.274;7.796;2022-09-16T01:36:06;13.90;99.90
7360;DHT22;3720;48.274;7.796;2022-09-16T01:38:59;13.90;99.90
7360;DHT22;3720;48.274;7.796;2022-09-16T01:41:42;13.90;99.90
7360;DHT22;3720;48.274;7.796;2022-09-16T01:44:21;13.90;99.90
7360;DHT22;3720;48.274;7.796;2022-09-16T01:47:03;13.90;99.90
7360;DHT22;3720;48.274;7.796;2022-09-16T01:49:43;13.90;99.90
7360;DHT22;3720;48.274;7.796;2022-09-16T01:52:21;13.80;99.90
7360;DHT22;3720;48.274;7.796;2022-09-16T01:54:58;13.80;99.90
7360;DHT22;3720;48.274;7.796;2022-09-16T01:57:35;13.80;99.90
7360;DHT22;3720;48.274;7.796;2022-09-16T02:00:11;13.80;99.90
7360;DHT22;3720;48.274;7.796;2022-09-16T02:02:49;13.80;99.90
7360;DHT22;3720;48.274;7.796;2022-09-16T02:05:26;13.90;99.90
7360;DHT22;3720;48.274;7.796;2022-09-16T02:08:03;13.90;99.90
7360;DHT22;3720;48.274;7.796;2022-09-16T02:10:39;14.00;99.90
7360;DHT22;3720;48.274;7.796;2022-09-16T02:13:18;14.00;99.90
7360;DHT22;3720;48.274;7.796;2022-09-16T02:15:53;14.10;99.90
7360;DHT22;3720;48.274;7.796;2022-09-16T02:18:33;14.00;99.90
7360;DHT22;3720;48.274;7.796;2022-09-16T02:21:12;14.10;99.90
7360;DHT22;3720;48.274;7.796;2022-09-16T02:23:49;14.10;99.90
7360;DHT22;3720;48.274;7.796;2022-09-16T02:26:25;14.10;99.90
7360;DHT22;3720;48.274;7.796;2022-09-16T02:28:59;14.20;99.90
7360;DHT22;3720;48.274;7.796;2022-09-16T02:31:33;14.20;99.90
7360;DHT22;3720;48.274;7.796;2022-09-16T02:34:12;14.30;99.90
7360;DHT22;3720;48.274;7.796;2022-09-16T02:36:48;14.30;99.90
7360;DHT22;3720;48.274;7.796;2022-09-16T02:39:27;14.30;99.90
7360;DHT22;3720;48.274;7.796;2022-09-16T02:42:01;14.40;99.90
7360;DHT22;3720;48.274;7.796;2022-09-16T02:44:33;14.40;99.90
7360;DHT22;3720;48.274;7.796;2022-09-16T02:47:10;14.30;99.90
7360;DHT22;3720;48.274;7.796;2022-09-16T02:49:51;14.40;99.90
7360;DHT22;3720;48.274;7.796;2022-09-16T02:52:31;14.40;99.90
7360;DHT22;3720;48.274;7.796;2022-09-16T02:55:13;14.40;99.90
7360;DHT22;3720;48.274;7.796;2022-09-16T02:57:46;14.50;99.90
7360;DHT22;3720;48.274;7.796;2022-09-16T03:00:19;14.50;99.90
7360;DHT22;3720;48.274;7.796;2022-09-16T03:02:53;14.50;99.90
7360;DHT22;3720;48.274;7.796;2022-09-16T03:05:28;14.50;99.90
7360;DHT22;3720;48.274;7.796;2022-09-16T03:08:01;14.60;99.90
7360;DHT22;3720;48.274;7.796;2022-09-16T03:10:41;14.50;99.90
7360;DHT22;3720;48.274;7.796;2022-09-16T03:13:21;14.60;99.90
7360;DHT22;3720;48.274;7.796;2022-09-16T03:16:01;14.50;99.90
7360;DHT22;3720;48.274;7.796;2022-09-16T03:18:53;14.60;99.90
7360;DHT22;3720;48.274;7.796;2022-09-16T03:21:36;14.60;99.90
7360;DHT22;3720;48.274;7.796;2022-09-16T03:24:17;14.70;99.90
7360;DHT22;3720;48.274;7.796;2022-09-16T03:26:57;14.70;99.90
7360;DHT22;3720;48.274;7.796;2022-09-16T03:29:33;14.70;99.90
7360;DHT22;3720;48.274;7.796;2022-09-16T03:32:10;14.70;99.90
7360;DHT22;3720;48.274;7.796;2022-09-16T03:34:47;14.70;99.90
7360;DHT22;3720;48.274;7.796;2022-09-16T03:37:24;14.70;99.90
7360;DHT22;3720;48.274;7.796;2022-09-16T03:40:07;14.60;99.90
7360;DHT22;3720;48.274;7.796;2022-09-16T03:42:42;14.60;99.90
7360;DHT22;3720;48.274;7.796;2022-09-16T03:45:16;14.70;99.90
7360;DHT22;3720;48.274;7.796;2022-09-16T03:47:50;14.70;99.90
7360;DHT22;3720;48.274;7.796;2022-09-16T03:50:22;14.70;99.90
7360;DHT22;3720;48.274;7.796;2022-09-16T03:52:55;14.70;99.90
7360;DHT22;3720;48.274;7.796;2022-09-16T03:55:27;14.80;99.90
7360;DHT22;3720;48.274;7.796;2022-09-16T03:57:59;14.80;99.90
7360;DHT22;3720;48.274;7.796;2022-09-16T04:00:31;14.80;99.90
7360;DHT22;3720;48.274;7.796;2022-09-16T04:03:04;14.90;99.90
7360;DHT22;3720;48.274;7.796;2022-09-16T04:05:36;14.90;99.90
7360;DHT22;3720;48.274;7.796;2022-09-16T04:08:09;14.90;99.90
7360;DHT22;3720;48.274;7.796;2022-09-16T04:10:41;15.00;99.90
7360;DHT22;3720;48.274;7.796;2022-09-16T04:13:12;15.00;99.90
7360;DHT22;3720;48.274;7.796;2022-09-16T04:15:44;15.00;99.90
7360;DHT22;3720;48.274;7.796;2022-09-16T04:18:16;15.00;99.90
7360;DHT22;3720;48.274;7.796;2022-09-16T04:20:48;15.00;99.90
7360;DHT22;3720;48.274;7.796;2022-09-16T04:23:23;15.00;99.90
7360;DHT22;3720;48.274;7.796;2022-09-16T04:25:55;15.00;99.90
7360;DHT22;3720;48.274;7.796;2022-09-16T04:28:29;15.00;99.90
7360;DHT22;3720;48.274;7.796;2022-09-16T04:31:02;15.00;99.90
7360;DHT22;3720;48.274;7.796;2022-09-16T04:33:35;15.00;99.90
7360;DHT22;3720;48.274;7.796;2022-09-16T04:36:10;15.00;99.90
7360;DHT22;3720;48.274;7.796;2022-09-16T04:38:46;15.10;99.90
7360;DHT22;3720;48.274;7.796;2022-09-16T04:41:19;15.10;99.90
7360;DHT22;3720;48.274;7.796;2022-09-16T04:43:53;15.10;99.90
7360;DHT22;3720;48.274;7.796;2022-09-16T04:46:28;15.10;99.90
7360;DHT22;3720;48.274;7.796;2022-09-16T04:49:02;15.20;99.90
7360;DHT22;3720;48.274;7.796;2022-09-16T04:51:34;15.20;99.90
7360;DHT22;3720;48.274;7.796;2022-09-16T04:54:07;15.30;99.90
7360;DHT22;3720;48.274;7.796;2022-09-16T04:56:41;15.30;99.90
7360;DHT22;3720;48.274;7.796;2022-09-16T04:59:13;15.30;99.90
7360;DHT22;3720;48.274;7.796;2022-09-16T05:01:44;15.30;99.90
7360;DHT22;3720;48.274;7.796;2022-09-16T05:04:16;15.30;99.90
7360;DHT22;3720;48.274;7.796;2022-09-16T05:06:48;15.20;99.90
7360;DHT22;3720;48.274;7.796;2022-09-16T05:09:21;15.20;99.90
7360;DHT22;3720;48.274;7.796;2022-09-16T05:11:53;15.20;99.90
7360;DHT22;3720;48.274;7.796;2022-09-16T05:14:26;15.20;99.90
7360;DHT22;3720;48.274;7.796;2022-09-16T05:16:58;15.10;99.90
7360;DHT22;3720;48.274;7.796;2022-09-16T05:19:30;15.10;99.90
7360;DHT22;3720;48.274;7.796;2022-09-16T05:22:02;15.10;99.90
7360;DHT22;3720;48.274;7.796;2022-09-16T05:24:38;15.10;99.90
7360;DHT22;3720;48.274;7.796;2022-09-16T05:27:09;15.10;99.90
7360;DHT22;3720;48.274;7.796;2022-09-16T05:29:41;15.20;99.90
7360;DHT22;3720;48.274;7.796;2022-09-16T05:32:13;15.20;99.90
7360;DHT22;3720;48.274;7.796;2022-09-16T05:34:45;15.20;99.90
7360;DHT22;3720;48.274;7.796;2022-09-16T05:37:17;15.20;99.90
7360;DHT22;3720;48.274;7.796;2022-09-16T05:39:50;15.20;99.90
7360;DHT22;3720;48.274;7.796;2022-09-16T05:42:22;15.20;99.90
7360;DHT22;3720;48.274;7.796;2022-09-16T05:44:54;15.30;99.90
7360;DHT22;3720;48.274;7.796;2022-09-16T05:47:26;15.40;99.90
7360;DHT22;3720;48.274;7.796;2022-09-16T05:49:58;15.40;99.90
7360;DHT22;3720;48.274;7.796;2022-09-16T05:52:30;15.40;99.90
7360;DHT22;3720;48.274;7.796;2022-09-16T05:55:04;15.40;99.90
7360;DHT22;3720;48.274;7.796;2022-09-16T05:57:36;15.40;99.90
7360;DHT22;3720;48.274;7.796;2022-09-16T06:00:10;15.40;99.90
7360;DHT22;3720;48.274;7.796;2022-09-16T06:02:42;15.40;99.90
7360;DHT22;3720;48.274;7.796;2022-09-16T06:05:14;15.50;99.90
7360;DHT22;3720;48.274;7.796;2022-09-16T06:07:46;15.50;99.90
7360;DHT22;3720;48.274;7.796;2022-09-16T06:10:19;15.50;99.90
7360;DHT22;3720;48.274;7.796;2022-09-16T06:12:52;15.50;99.90
7360;DHT22;3720;48.274;7.796;2022-09-16T06:15:23;15.50;99.90
7360;DHT22;3720;48.274;7.796;2022-09-16T06:17:55;15.50;99.90
7360;DHT22;3720;48.274;7.796;2022-09-16T06:20:28;15.50;99.90
7360;DHT22;3720;48.274;7.796;2022-09-16T06:22:59;15.60;99.90
7360;DHT22;3720;48.274;7.796;2022-09-16T06:25:33;15.60;99.90
7360;DHT22;3720;48.274;7.796;2022-09-16T06:28:05;15.60;99.90
7360;DHT22;3720;48.274;7.796;2022-09-16T06:30:39;15.60;99.90
7360;DHT22;3720;48.274;7.796;2022-09-16T06:33:12;15.70;99.90
7360;DHT22;3720;48.274;7.796;2022-09-16T06:35:45;15.70;99.90
7360;DHT22;3720;48.274;7.796;2022-09-16T06:38:17;15.70;99.90
7360;DHT22;3720;48.274;7.796;2022-09-16T06:40:50;15.70;99.90
7360;DHT22;3720;48.274;7.796;2022-09-16T06:43:22;15.60;99.90
7360;DHT22;3720;48.274;7.796;2022-09-16T06:45:58;15.50;99.90
7360;DHT22;3720;48.274;7.796;2022-09-16T06:48:32;15.40;99.90
7360;DHT22;3720;48.274;7.796;2022-09-16T06:51:06;15.40;99.90
7360;DHT22;3720;48.274;7.796;2022-09-16T06:53:38;15.30;99.90
7360;DHT22;3720;48.274;7.796;2022-09-16T06:56:14;15.20;99.90
7360;DHT22;3720;48.274;7.796;2022-09-16T06:58:48;15.10;99.90
7360;DHT22;3720;48.274;7.796;2022-09-16T07:01:23;15.10;99.90
7360;DHT22;3720;48.274;7.796;2022-09-16T07:03:57;15.00;99.90
7360;DHT22;3720;48.274;7.796;2022-09-16T07:06:29;14.90;99.90
7360;DHT22;3720;48.274;7.796;2022-09-16T07:09:02;15.00;99.90
7360;DHT22;3720;48.274;7.796;2022-09-16T07:11:35;14.90;99.90
7360;DHT22;3720;48.274;7.796;2022-09-16T07:14:07;14.90;99.90
7360;DHT22;3720;48.274;7.796;2022-09-16T07:16:40;14.90;99.90
7360;DHT22;3720;48.274;7.796;2022-09-16T07:19:12;14.80;99.90
7360;DHT22;3720;48.274;7.796;2022-09-16T07:21:44;14.80;99.90
7360;DHT22;3720;48.274;7.796;2022-09-16T07:24:16;14.80;99.90
7360;DHT22;3720;48.274;7.796;2022-09-16T07:26:49;14.80;99.90
7360;DHT22;3720;48.274;7.796;2022-09-16T07:29:21;14.80;99.90
7360;DHT22;3720;48.274;7.796;2022-09-16T07:31:53;14.80;99.90
7360;DHT22;3720;48.274;7.796;2022-09-16T07:34:25;14.80;99.90
7360;DHT22;3720;48.274;7.796;2022-09-16T07:36:58;14.80;99.90
7360;DHT22;3720;48.274;7.796;2022-09-16T07:39:30;14.80;99.90
7360;DHT22;3720;48.274;7.796;2022-09-16T07:42:03;14.70;99.90
7360;DHT22;3720;48.274;7.796;2022-09-16T07:44:36;14.80;99.90
7360;DHT22;3720;48.274;7.796;2022-09-16T07:47:08;14.80;99.90
7360;DHT22;3720;48.274;7.796;2022-09-16T07:49:40;14.80;99.90
7360;DHT22;3720;48.274;7.796;2022-09-16T07:52:13;14.80;99.90
7360;DHT22;3720;48.274;7.796;2022-09-16T07:54:47;14.80;99.90
7360;DHT22;3720;48.274;7.796;2022-09-16T07:57:21;14.80;99.90
7360;DHT22;3720;48.274;7.796;2022-09-16T07:59:53;14.90;99.90
7360;DHT22;3720;48.274;7.796;2022-09-16T08:02:27;14.90;99.90
7360;DHT22;3720;48.274;7.796;2022-09-16T08:04:59;15.00;99.90
7360;DHT22;3720;48.274;7.796;2022-09-16T08:07:31;15.00;99.90
7360;DHT22;3720;48.274;7.796;2022-09-16T08:10:03;15.10;99.90
7360;DHT22;3720;48.274;7.796;2022-09-16T08:12:37;15.20;99.90
7360;DHT22;3720;48.274;7.796;2022-09-16T08:15:10;15.20;99.90
7360;DHT22;3720;48.274;7.796;2022-09-16T08:17:42;15.30;99.90
7360;DHT22;3720;48.274;7.796;2022-09-16T08:20:14;15.30;99.90
7360;DHT22;3720;48.274;7.796;2022-09-16T08:22:46;15.40;99.90
7360;DHT22;3720;48.274;7.796;2022-09-16T08:25:18;15.60;99.90
7360;DHT22;3720;48.274;7.796;2022-09-16T08:27:51;15.70;99.90
7360;DHT22;3720;48.274;7.796;2022-09-16T08:30:23;15.80;99.90
7360;DHT22;3720;48.274;7.796;2022-09-16T08:32:56;16.00;99.90
7360;DHT22;3720;48.274;7.796;2022-09-16T08:35:28;16.10;99.90
7360;DHT22;3720;48.274;7.796;2022-09-16T08:38:00;16.10;99.90
7360;DHT22;3720;48.274;7.796;2022-09-16T08:40:34;16.20;99.90
7360;DHT22;3720;48.274;7.796;2022-09-16T08:43:13;16.20;99.90
7360;DHT22;3720;48.274;7.796;2022-09-16T08:45:52;16.30;99.90
7360;DHT22;3720;48.274;7.796;2022-09-16T08:48:30;16.30;99.90
7360;DHT22;3720;48.274;7.796;2022-09-16T08:51:06;16.40;99.90
7360;DHT22;3720;48.274;7.796;2022-09-16T08:53:44;16.30;99.90
7360;DHT22;3720;48.274;7.796;2022-09-16T08:56:20;16.30;99.90
7360;DHT22;3720;48.274;7.796;2022-09-16T08:58:56;16.30;99.90
7360;DHT22;3720;48.274;7.796;2022-09-16T09:01:35;16.50;99.90
7360;DHT22;3720;48.274;7.796;2022-09-16T09:04:11;16.60;99.90
7360;DHT22;3720;48.274;7.796;2022-09-16T09:06:53;16.70;99.90
7360;DHT22;3720;48.274;7.796;2022-09-16T09:09:39;16.80;99.90
7360;DHT22;3720;48.274;7.796;2022-09-16T09:12:19;16.90;99.90
7360;DHT22;3720;48.274;7.796;2022-09-16T09:15:05;16.90;99.90
7360;DHT22;3720;48.274;7.796;2022-09-16T09:17:50;16.70;99.90
7360;DHT22;3720;48.274;7.796;2022-09-16T09:20:33;16.70;99.90
7360;DHT22;3720;48.274;7.796;2022-09-16T09:23:24;16.50;99.90
7360;DHT22;3720;48.274;7.796;2022-09-16T09:26:04;16.50;99.90
7360;DHT22;3720;48.274;7.796;2022-09-16T09:29:01;16.60;99.90
7360;DHT22;3720;48.274;7.796;2022-09-16T09:31:45;16.70;99.90
7360;DHT22;3720;48.274;7.796;2022-09-16T09:34:31;16.70;99.90
7360;DHT22;3720;48.274;7.796;2022-09-16T09:37:18;16.80;99.90
7360;DHT22;3720;48.274;7.796;2022-09-16T09:39:59;16.80;99.90
7360;DHT22;3720;48.274;7.796;2022-09-16T09:42:39;16.80;99.90
7360;DHT22;3720;48.274;7.796;2022-09-16T09:45:18;16.80;99.90
7360;DHT22;3720;48.274;7.796;2022-09-16T09:47:56;16.80;99.90
7360;DHT22;3720;48.274;7.796;2022-09-16T09:50:41;16.80;99.90
7360;DHT22;3720;48.274;7.796;2022-09-16T09:53:19;16.70;99.90
7360;DHT22;3720;48.274;7.796;2022-09-16T09:55:57;16.70;99.90
7360;DHT22;3720;48.274;7.796;2022-09-16T09:58:35;16.70;99.90
7360;DHT22;3720;48.274;7.796;2022-09-16T10:01:09;16.70;99.90
7360;DHT22;3720;48.274;7.796;2022-09-16T10:03:43;16.70;99.90
7360;DHT22;3720;48.274;7.796;2022-09-16T10:06:16;16.70;99.90
7360;DHT22;3720;48.274;7.796;2022-09-16T10:08:53;16.70;99.90
7360;DHT22;3720;48.274;7.796;2022-09-16T10:11:29;16.80;99.90
7360;DHT22;3720;48.274;7.796;2022-09-16T10:14:02;16.80;99.90
7360;DHT22;3720;48.274;7.796;2022-09-16T10:16:36;17.00;99.90
7360;DHT22;3720;48.274;7.796;2022-09-16T10:19:18;17.10;99.90
7360;DHT22;3720;48.274;7.796;2022-09-16T10:21:53;17.20;99.90
7360;DHT22;3720;48.274;7.796;2022-09-16T10:24:30;17.40;99.90
7360;DHT22;3720;48.274;7.796;2022-09-16T10:27:18;17.60;99.90
7360;DHT22;3720;48.274;7.796;2022-09-16T10:30:06;17.70;99.90
7360;DHT22;3720;48.274;7.796;2022-09-16T10:32:47;17.70;99.90
7360;DHT22;3720;48.274;7.796;2022-09-16T10:35:23;17.90;99.90
7360;DHT22;3720;48.274;7.796;2022-09-16T10:37:57;18.10;99.90
7360;DHT22;3720;48.274;7.796;2022-09-16T10:40:30;18.30;99.90
7360;DHT22;3720;48.274;7.796;2022-09-16T10:43:05;18.50;99.90
7360;DHT22;3720;48.274;7.796;2022-09-16T10:45:44;18.50;99.90
7360;DHT22;3720;48.274;7.796;2022-09-16T10:48:19;18.50;99.90
7360;DHT22;3720;48.274;7.796;2022-09-16T10:50:54;18.40;99.90
7360;DHT22;3720;48.274;7.796;2022-09-16T10:53:29;18.40;99.90
7360;DHT22;3720;48.274;7.796;2022-09-16T10:56:04;18.30;99.90
7360;DHT22;3720;48.274;7.796;2022-09-16T10:58:37;18.20;99.90
7360;DHT22;3720;48.274;7.796;2022-09-16T11:01:25;18.30;99.90
7360;DHT22;3720;48.274;7.796;2022-09-16T11:07:18;18.20;99.90
7360;DHT22;3720;48.274;7.796;2022-09-16T11:09:57;18.20;99.90
7360;DHT22;3720;48.274;7.796;2022-09-16T11:12:42;18.10;99.90
7360;DHT22;3720;48.274;7.796;2022-09-16T11:15:24;18.10;99.90
7360;DHT22;3720;48.274;7.796;2022-09-16T11:18:18;18.10;99.90
7360;DHT22;3720;48.274;7.796;2022-09-16T11:21:09;18.10;99.90
7360;DHT22;3720;48.274;7.796;2022-09-16T11:23:59;18.20;99.90
7360;DHT22;3720;48.274;7.796;2022-09-16T11:26:44;18.20;99.90
7360;DHT22;3720;48.274;7.796;2022-09-16T11:29:44;18.30;99.90
7360;DHT22;3720;48.274;7.796;2022-09-16T11:32:28;18.20;99.90
7360;DHT22;3720;48.274;7.796;2022-09-16T11:35:20;18.20;99.90
7360;DHT22;3720;48.274;7.796;2022-09-16T11:38:03;18.30;99.90
7360;DHT22;3720;48.274;7.796;2022-09-16T11:40:45;18.20;99.90
7360;DHT22;3720;48.274;7.796;2022-09-16T11:43:43;18.20;99.90
7360;DHT22;3720;48.274;7.796;2022-09-16T11:46:20;18.30;99.90
7360;DHT22;3720;48.274;7.796;2022-09-16T11:49:05;18.40;99.90
7360;DHT22;3720;48.274;7.796;2022-09-16T11:51:50;18.50;99.90
7360;DHT22;3720;48.274;7.796;2022-09-16T11:54:37;18.70;99.90
7360;DHT22;3720;48.274;7.796;2022-09-16T11:57:17;18.80;99.90
7360;DHT22;3720;48.274;7.796;2022-09-16T11:59:53;18.90;99.90
7360;DHT22;3720;48.274;7.796;2022-09-16T12:02:29;19.00;99.90
7360;DHT22;3720;48.274;7.796;2022-09-16T12:05:13;19.10;99.90
7360;DHT22;3720;48.274;7.796;2022-09-16T12:07:51;19.00;99.90
7360;DHT22;3720;48.274;7.796;2022-09-16T12:10:27;19.00;99.90
7360;DHT22;3720;48.274;7.796;2022-09-16T12:13:07;18.90;99.90
7360;DHT22;3720;48.274;7.796;2022-09-16T12:15:44;18.90;99.90
7360;DHT22;3720;48.274;7.796;2022-09-16T12:18:22;18.90;99.90
7360;DHT22;3720;48.274;7.796;2022-09-16T12:21:01;18.80;99.90
7360;DHT22;3720;48.274;7.796;2022-09-16T12:23:40;18.90;99.90
7360;DHT22;3720;48.274;7.796;2022-09-16T12:26:17;19.00;99.90
7360;DHT22;3720;48.274;7.796;2022-09-16T12:28:53;19.20;99.90
7360;DHT22;3720;48.274;7.796;2022-09-16T12:31:31;19.20;99.90
7360;DHT22;3720;48.274;7.796;2022-09-16T12:34:04;19.20;99.90
7360;DHT22;3720;48.274;7.796;2022-09-16T12:36:43;19.20;99.90
7360;DHT22;3720;48.274;7.796;2022-09-16T12:39:17;19.20;99.90
7360;DHT22;3720;48.274;7.796;2022-09-16T12:42:13;19.30;99.90
7360;DHT22;3720;48.274;7.796;2022-09-16T12:45:09;19.20;99.90
7360;DHT22;3720;48.274;7.796;2022-09-16T12:48:10;19.00;99.90
7360;DHT22;3720;48.274;7.796;2022-09-16T12:50:55;19.00;99.90
7360;DHT22;3720;48.274;7.796;2022-09-16T12:53:47;18.80;99.90
7360;DHT22;3720;48.274;7.796;2022-09-16T12:56:40;18.80;99.90
7360;DHT22;3720;48.274;7.796;2022-09-16T13:02:34;19.20;99.90
7360;DHT22;3720;48.274;7.796;2022-09-16T13:22:44;19.70;99.90
7360;DHT22;3720;48.274;7.796;2022-09-16T13:25:21;19.80;99.90
7360;DHT22;3720;48.274;7.796;2022-09-16T13:27:56;19.70;99.90
7360;DHT22;3720;48.274;7.796;2022-09-16T13:30:35;19.60;99.90
7360;DHT22;3720;48.274;7.796;2022-09-16T13:33:34;19.50;99.90
7360;DHT22;3720;48.274;7.796;2022-09-16T13:36:30;19.30;99.90
7360;DHT22;3720;48.274;7.796;2022-09-16T13:39:04;19.30;99.90
7360;DHT22;3720;48.274;7.796;2022-09-16T13:41:40;19.30;99.90
7360;DHT22;3720;48.274;7.796;2022-09-16T13:44:28;19.30;99.90
7360;DHT22;3720;48.274;7.796;2022-09-16T13:47:15;19.20;99.90
7360;DHT22;3720;48.274;7.796;2022-09-16T13:49:55;19.10;99.90
7360;DHT22;3720;48.274;7.796;2022-09-16T13:52:29;19.10;99.90
7360;DHT22;3720;48.274;7.796;2022-09-16T13:55:04;19.10;99.90
7360;DHT22;3720;48.274;7.796;2022-09-16T13:58:05;19.00;99.90
7360;DHT22;3720;48.274;7.796;2022-09-16T14:00:48;18.80;99.90
7360;DHT22;3720;48.274;7.796;2022-09-16T14:03:43;18.70;99.90
7360;DHT22;3720;48.274;7.796;2022-09-16T14:09:38;18.70;99.90
7360;DHT22;3720;48.274;7.796;2022-09-16T14:12:20;18.70;99.90
7360;DHT22;3720;48.274;7.796;2022-09-16T14:14:58;18.70;99.90
7360;DHT22;3720;48.274;7.796;2022-09-16T14:17:36;18.70;99.90
7360;DHT22;3720;48.274;7.796;2022-09-16T14:20:13;18.60;99.90
7360;DHT22;3720;48.274;7.796;2022-09-16T14:22:46;18.60;99.90
7360;DHT22;3720;48.274;7.796;2022-09-16T14:25:28;18.60;99.90
7360;DHT22;3720;48.274;7.796;2022-09-16T14:28:08;18.60;99.90
7360;DHT22;3720;48.274;7.796;2022-09-16T14:30:49;18.60;99.90
7360;DHT22;3720;48.274;7.796;2022-09-16T14:33:27;18.60;99.90
7360;DHT22;3720;48.274;7.796;2022-09-16T14:36:08;18.50;99.90
7360;DHT22;3720;48.274;7.796;2022-09-16T14:38:43;18.50;99.90
7360;DHT22;3720;48.274;7.796;2022-09-16T14:41:21;18.50;99.90
7360;DHT22;3720;48.274;7.796;2022-09-16T14:44:07;18.60;99.90
7360;DHT22;3720;48.274;7.796;2022-09-16T14:46:45;18.50;99.90
7360;DHT22;3720;48.274;7.796;2022-09-16T14:49:19;18.50;99.90
7360;DHT22;3720;48.274;7.796;2022-09-16T14:51:55;18.50;99.90
7360;DHT22;3720;48.274;7.796;2022-09-16T14:54:30;18.50;99.90
7360;DHT22;3720;48.274;7.796;2022-09-16T14:57:05;18.40;99.90
7360;DHT22;3720;48.274;7.796;2022-09-16T14:59:38;18.40;99.90
7360;DHT22;3720;48.274;7.796;2022-09-16T15:02:18;18.50;99.90
7360;DHT22;3720;48.274;7.796;2022-09-16T15:04:55;18.50;99.90
7360;DHT22;3720;48.274;7.796;2022-09-16T15:07:28;18.50;99.90
7360;DHT22;3720;48.274;7.796;2022-09-16T15:10:03;18.60;99.90
7360;DHT22;3720;48.274;7.796;2022-09-16T15:12:45;18.60;99.90
7360;DHT22;3720;48.274;7.796;2022-09-16T15:15:30;18.80;99.90
7360;DHT22;3720;48.274;7.796;2022-09-16T15:18:07;19.00;99.90
7360;DHT22;3720;48.274;7.796;2022-09-16T15:20:49;19.10;99.90
7360;DHT22;3720;48.274;7.796;2022-09-16T15:23:25;19.20;99.90
7360;DHT22;3720;48.274;7.796;2022-09-16T15:26:03;19.30;99.90
7360;DHT22;3720;48.274;7.796;2022-09-16T15:28:36;19.20;99.90
7360;DHT22;3720;48.274;7.796;2022-09-16T15:31:11;19.10;99.90
7360;DHT22;3720;48.274;7.796;2022-09-16T15:33:50;18.90;99.90
7360;DHT22;3720;48.274;7.796;2022-09-16T15:36:32;18.90;99.90
7360;DHT22;3720;48.274;7.796;2022-09-16T15:39:23;18.80;99.90
7360;DHT22;3720;48.274;7.796;2022-09-16T15:42:19;18.70;99.90
7360;DHT22;3720;48.274;7.796;2022-09-16T15:44:56;18.80;99.90
7360;DHT22;3720;48.274;7.796;2022-09-16T15:47:31;19.00;99.90
7360;DHT22;3720;48.274;7.796;2022-09-16T15:50:09;18.90;99.90
7360;DHT22;3720;48.274;7.796;2022-09-16T15:52:51;18.90;99.90
7360;DHT22;3720;48.274;7.796;2022-09-16T15:55:31;18.90;99.90
7360;DHT22;3720;48.274;7.796;2022-09-16T15:58:14;18.80;99.90
7360;DHT22;3720;48.274;7.796;2022-09-16T16:00:58;18.70;99.90
7360;DHT22;3720;48.274;7.796;2022-09-16T16:03:36;18.60;99.90
7360;DHT22;3720;48.274;7.796;2022-09-16T16:06:11;18.60;99.90
7360;DHT22;3720;48.274;7.796;2022-09-16T16:08:53;18.50;99.90
7360;DHT22;3720;48.274;7.796;2022-09-16T16:11:27;18.40;99.90
7360;DHT22;3720;48.274;7.796;2022-09-16T16:14:00;18.40;99.90
7360;DHT22;3720;48.274;7.796;2022-09-16T16:16:35;18.40;99.90
7360;DHT22;3720;48.274;7.796;2022-09-16T16:19:09;18.30;99.90
7360;DHT22;3720;48.274;7.796;2022-09-16T16:21:42;18.30;99.90
7360;DHT22;3720;48.274;7.796;2022-09-16T16:24:15;18.20;99.90
7360;DHT22;3720;48.274;7.796;2022-09-16T16:26:51;18.20;99.90
7360;DHT22;3720;48.274;7.796;2022-09-16T16:29:23;18.20;99.90
7360;DHT22;3720;48.274;7.796;2022-09-16T16:32:00;18.40;99.90
7360;DHT22;3720;48.274;7.796;2022-09-16T16:34:33;18.50;99.90
7360;DHT22;3720;48.274;7.796;2022-09-16T16:37:09;18.50;99.90
7360;DHT22;3720;48.274;7.796;2022-09-16T16:39:42;18.50;99.90
7360;DHT22;3720;48.274;7.796;2022-09-16T16:42:15;18.50;99.90
7360;DHT22;3720;48.274;7.796;2022-09-16T16:44:47;18.50;99.90
7360;DHT22;3720;48.274;7.796;2022-09-16T16:47:19;18.50;99.90
7360;DHT22;3720;48.274;7.796;2022-09-16T16:49:52;18.40;99.90
7360;DHT22;3720;48.274;7.796;2022-09-16T16:52:25;18.40;99.90
7360;DHT22;3720;48.274;7.796;2022-09-16T16:54:58;18.20;99.90
7360;DHT22;3720;48.274;7.796;2022-09-16T16:57:32;18.00;99.90
7360;DHT22;3720;48.274;7.796;2022-09-16T17:00:05;17.80;99.90
7360;DHT22;3720;48.274;7.796;2022-09-16T17:02:39;17.60;99.90
7360;DHT22;3720;48.274;7.796;2022-09-16T17:05:11;17.30;99.90
7360;DHT22;3720;48.274;7.796;2022-09-16T17:07:47;17.10;99.90
7360;DHT22;3720;48.274;7.796;2022-09-16T17:10:18;16.90;99.90
7360;DHT22;3720;48.274;7.796;2022-09-16T17:12:51;16.60;99.90
7360;DHT22;3720;48.274;7.796;2022-09-16T17:15:23;16.40;99.90
7360;DHT22;3720;48.274;7.796;2022-09-16T17:17:55;16.40;99.90
7360;DHT22;3720;48.274;7.796;2022-09-16T17:20:27;16.30;99.90
7360;DHT22;3720;48.274;7.796;2022-09-16T17:23:17;16.20;99.90
7360;DHT22;3720;48.274;7.796;2022-09-16T17:25:53;16.10;99.90
7360;DHT22;3720;48.274;7.796;2022-09-16T17:28:25;15.90;99.90
7360;DHT22;3720;48.274;7.796;2022-09-16T17:30:59;15.80;99.90
7360;DHT22;3720;48.274;7.796;2022-09-16T17:33:33;15.80;99.90
7360;DHT22;3720;48.274;7.796;2022-09-16T17:36:19;15.80;99.90